createdAt,value
2022-07-27T04:02:34.075Z,56.55
2022-07-27T04:05:03.536Z,56.81
2022-07-27T04:07:32.963Z,57.28
2022-07-27T04:10:02.342Z,57.23
2022-07-27T04:12:33.198Z,56.73
2022-07-27T04:15:05.226Z,56.56
2022-07-27T04:17:55.501Z,57.22
2022-07-27T04:20:26.862Z,57.33
2022-07-27T04:22:56.316Z,57.66
2022-07-27T04:25:25.693Z,57.98
2022-07-27T04:27:56.955Z,58.08
2022-07-27T04:30:26.671Z,57.60
2022-07-27T04:32:58.651Z,58.04
2022-07-27T04:35:28.156Z,58.04
2022-07-27T04:37:59.790Z,57.96
2022-07-27T04:40:32.396Z,58.01
2022-07-27T04:43:01.847Z,57.75
2022-07-27T04:45:31.801Z,57.57
2022-07-27T04:48:07.728Z,58.43
2022-07-27T04:50:41.329Z,58.21
2022-07-27T04:53:11.017Z,58.30
2022-07-27T04:55:40.386Z,58.58
2022-07-27T04:58:09.810Z,59.24
2022-07-27T05:00:39.302Z,58.87
2022-07-27T05:03:11.260Z,58.58
2022-07-27T05:05:40.836Z,58.62
2022-07-27T05:08:19.548Z,58.42
2022-07-27T05:10:48.951Z,58.57
2022-07-27T05:13:18.293Z,58.04
2022-07-27T05:15:54.501Z,58.65
2022-07-27T05:18:28.245Z,58.53
2022-07-27T05:20:57.681Z,58.22
2022-07-27T05:23:27.072Z,59.16
2022-07-27T05:25:56.444Z,59.81
2022-07-27T05:28:25.865Z,59.62
2022-07-27T05:30:55.206Z,59.68
2022-07-27T05:33:25.314Z,59.91
2022-07-27T05:35:57.666Z,59.46
2022-07-27T05:38:27.162Z,59.37
2022-07-27T05:40:56.598Z,59.12
2022-07-27T05:43:26.029Z,58.75
2022-07-27T05:45:57.133Z,59.25
2022-07-27T05:48:26.554Z,59.49
2022-07-27T05:50:58.551Z,59.99
2022-07-27T05:53:27.980Z,59.52
2022-07-27T05:55:58.628Z,59.35
2022-07-27T05:58:29.628Z,59.33
2022-07-27T06:00:59.833Z,59.69
2022-07-27T06:03:29.287Z,59.05
2022-07-27T06:06:13.703Z,58.55
2022-07-27T06:08:43.200Z,58.75
2022-07-27T06:11:12.637Z,58.33
2022-07-27T06:13:42.607Z,58.56
2022-07-27T06:16:12.378Z,58.06
2022-07-27T06:18:41.933Z,57.83
2022-07-27T06:21:13.941Z,57.87
2022-07-27T06:23:43.604Z,57.44
2022-07-27T06:26:13.097Z,57.04
2022-07-27T06:28:42.543Z,57.12
2022-07-27T06:31:13.450Z,56.85
2022-07-27T06:33:45.359Z,56.98
2022-07-27T06:36:20.342Z,56.53
2022-07-27T06:38:49.751Z,56.27
2022-07-27T06:41:19.955Z,55.91
2022-07-27T06:43:49.357Z,56.32
2022-07-27T06:46:18.820Z,55.54
2022-07-27T06:48:48.321Z,55.49
2022-07-27T06:51:20.418Z,55.39
2022-07-27T06:53:53.197Z,55.21
2022-07-27T06:56:23.163Z,54.52
2022-07-27T06:58:52.877Z,54.37
2022-07-27T07:01:22.307Z,54.53
2022-07-27T07:03:51.847Z,54.26
2022-07-27T07:06:23.955Z,54.42
2022-07-27T07:08:53.344Z,54.34
2022-07-27T07:11:22.766Z,53.66
2022-07-27T07:13:52.216Z,53.62
2022-07-27T07:16:21.762Z,52.93
2022-07-27T07:18:52.615Z,53.05
2022-07-27T07:21:24.850Z,52.84
2022-07-27T07:23:54.350Z,52.45
2022-07-27T07:26:23.760Z,52.44
2022-07-27T07:28:53.129Z,52.46
2022-07-27T07:31:22.657Z,52.37
2022-07-27T07:33:52.201Z,53.35
2022-07-27T07:36:24.360Z,52.90
2022-07-27T07:38:55.769Z,52.11
2022-07-27T07:41:25.518Z,51.76
2022-07-27T07:43:54.933Z,52.11
2022-07-27T07:46:24.474Z,52.37
2022-07-27T07:48:54.230Z,52.92
2022-07-27T07:51:26.317Z,52.97
2022-07-27T07:53:55.780Z,53.02
2022-07-27T07:56:25.156Z,53.02
2022-07-27T07:58:54.632Z,52.69
2022-07-27T08:01:24.100Z,52.64
2022-07-27T08:03:55.379Z,52.56
2022-07-27T08:06:27.441Z,52.83
2022-07-27T08:08:57.487Z,52.46
2022-07-27T08:11:27.176Z,52.74
2022-07-27T08:13:56.678Z,51.36
2022-07-27T08:16:26.235Z,50.70
2022-07-27T08:18:55.776Z,50.94
2022-07-27T08:21:29.110Z,51.01
2022-07-27T08:24:02.786Z,50.73
2022-07-27T08:26:32.440Z,50.91
2022-07-27T08:29:13.253Z,49.96
2022-07-27T08:31:52.850Z,50.14
2022-07-27T08:34:22.815Z,50.34
2022-07-27T08:36:54.789Z,49.52
2022-07-27T08:40:19.892Z,49.72
2022-07-27T08:42:13.730Z,48.67
2022-07-27T08:44:43.776Z,49.16
2022-07-27T08:47:13.678Z,48.32
2022-07-27T08:49:44.441Z,49.01
2022-07-27T08:52:16.573Z,48.49
2022-07-27T08:54:46.210Z,49.04
2022-07-27T08:57:15.663Z,48.38
2022-07-27T08:59:45.326Z,47.72
2022-07-27T09:02:16.870Z,48.03
2022-07-27T09:04:46.389Z,47.88
2022-07-27T09:07:29.380Z,47.84
2022-07-27T09:10:00.848Z,47.92
2022-07-27T09:12:30.751Z,46.93
2022-07-27T09:15:06.217Z,47.36
2022-07-27T09:17:51.029Z,46.92
2022-07-27T09:20:21.604Z,47.32
2022-07-27T09:22:54.993Z,46.29
2022-07-27T09:26:00.847Z,46.49
2022-07-27T09:28:31.931Z,46.30
2022-07-27T09:31:07.503Z,46.16
2022-07-27T09:33:43.425Z,45.80
2022-07-27T09:36:12.934Z,45.66
2022-07-27T09:38:55.250Z,44.98
2022-07-27T09:41:28.457Z,45.62
2022-07-27T09:44:30.532Z,45.38
2022-07-27T09:46:50.177Z,44.85
2022-07-27T09:49:30.348Z,44.99
2022-07-27T09:52:01.372Z,44.05
2022-07-27T09:54:43.870Z,43.83
2022-07-27T09:57:13.473Z,44.38
2022-07-27T09:59:42.961Z,44.75
2022-07-27T10:02:14.925Z,44.07
2022-07-27T10:04:44.629Z,44.42
2022-07-27T10:07:14.861Z,42.71
2022-07-27T10:09:47.089Z,42.79
2022-07-27T10:12:16.637Z,42.95
2022-07-27T10:14:47.694Z,42.91
2022-07-27T10:17:17.346Z,42.97
2022-07-27T10:19:49.956Z,42.94
2022-07-27T10:22:19.413Z,42.54
2022-07-27T10:25:00.809Z,42.29
2022-07-27T10:27:31.170Z,41.10
2022-07-27T10:30:00.779Z,41.08
2022-07-27T10:32:31.295Z,39.84
2022-07-27T10:35:01.277Z,40.55
2022-07-27T10:37:31.561Z,41.48
2022-07-27T10:40:16.571Z,40.99
2022-07-27T10:42:51.920Z,41.10
2022-07-27T10:45:23.445Z,39.98
2022-07-27T10:47:53.961Z,39.17
2022-07-27T10:50:25.051Z,38.81
2022-07-27T10:52:55.368Z,38.38
2022-07-27T10:55:39.948Z,40.01
2022-07-27T10:58:24.144Z,40.70
2022-07-27T11:01:07.538Z,40.31
2022-07-27T11:03:42.689Z,39.50
2022-07-27T11:09:53.187Z,38.22
2022-07-27T11:11:54.850Z,38.48
2022-07-27T11:14:30.791Z,38.69
2022-07-27T11:17:39.843Z,38.82
2022-07-27T11:19:58.071Z,37.99
2022-07-27T11:22:58.861Z,37.56
2022-07-27T11:25:23.548Z,37.85
2022-07-27T11:27:53.240Z,37.96
2022-07-27T11:30:26.498Z,38.00
2022-07-27T11:32:58.679Z,37.19
2022-07-27T11:35:28.081Z,36.98
2022-07-27T11:38:01.142Z,37.02
2022-07-27T11:40:56.375Z,36.70
2022-07-27T11:43:35.329Z,36.67
2022-07-27T11:46:14.467Z,36.10
2022-07-27T11:49:08.620Z,35.79
2022-07-27T11:51:43.077Z,34.76
2022-07-27T11:54:14.292Z,35.23
2022-07-27T11:56:46.148Z,34.33
2022-07-27T11:59:17.018Z,34.41
2022-07-27T12:01:49.851Z,34.60
2022-07-27T12:04:26.414Z,34.89
2022-07-27T12:07:19.724Z,34.12
2022-07-27T12:09:49.908Z,34.44
2022-07-27T12:12:19.854Z,34.26
2022-07-27T12:14:51.253Z,35.12
2022-07-27T12:17:28.455Z,35.34
2022-07-27T12:20:02.181Z,35.63
2022-07-27T12:22:33.522Z,35.42
2022-07-27T12:25:05.784Z,35.54
2022-07-27T12:27:40.910Z,35.22
2022-07-27T12:30:11.590Z,35.36
2022-07-27T12:32:42.910Z,35.35
2022-07-27T12:35:23.454Z,34.28
2022-07-27T12:37:59.231Z,34.78
2022-07-27T12:40:29.331Z,34.82
2022-07-27T12:43:00.410Z,35.34
2022-07-27T12:45:32.879Z,34.62
2022-07-27T12:48:09.545Z,35.68
2022-07-27T12:50:42.738Z,35.08
2022-07-27T12:53:13.410Z,35.00
2022-07-27T12:55:43.778Z,34.97
2022-07-27T16:18:36.823Z,29.98
2022-07-27T16:21:08.114Z,30.60
2022-07-27T16:23:37.821Z,30.14
2022-07-27T16:26:08.331Z,29.82
2022-07-27T16:28:39.729Z,30.22
2022-07-27T16:31:10.555Z,30.05
2022-07-27T16:33:44.163Z,29.95
2022-07-27T16:36:14.387Z,30.15
2022-07-27T16:38:50.196Z,29.90
2022-07-27T16:41:20.404Z,30.16
2022-07-27T16:43:50.422Z,29.40
2022-07-27T16:46:20.265Z,29.09
2022-07-27T16:48:52.396Z,28.91
2022-07-27T16:51:22.018Z,28.32
2022-07-27T16:53:51.404Z,28.11
2022-07-27T16:56:20.792Z,27.82
2022-07-27T16:58:50.327Z,27.92
2022-07-27T17:01:24.878Z,27.18
2022-07-27T17:03:59.299Z,27.08
2022-07-27T17:06:29.457Z,27.45
2022-07-27T17:08:58.869Z,27.17
2022-07-27T17:11:28.397Z,27.36
2022-07-27T17:13:58.962Z,27.28
2022-07-27T17:16:28.876Z,27.36
2022-07-27T17:19:03.477Z,26.64
2022-07-27T17:21:32.861Z,27.09
2022-07-27T17:24:02.249Z,27.04
2022-07-27T17:26:31.643Z,26.98
2022-07-27T17:29:01.061Z,26.60
2022-07-27T17:31:30.611Z,26.39
2022-07-27T17:34:02.964Z,26.55
2022-07-27T17:36:32.305Z,26.17
2022-07-27T17:39:02.497Z,26.11
2022-07-27T17:41:32.419Z,25.53
2022-07-27T17:44:02.149Z,25.77
2022-07-27T17:46:38.671Z,25.31
2022-07-27T17:49:11.396Z,25.97
2022-07-27T17:51:41.261Z,25.84
2022-07-27T17:54:10.782Z,25.91
2022-07-27T17:56:40.219Z,25.97
2022-07-27T17:59:36.478Z,26.39
2022-07-27T18:02:05.561Z,26.93
2022-07-27T18:04:39.587Z,27.04
2022-07-27T18:07:09.256Z,27.29
2022-07-27T18:09:38.669Z,27.38
2022-07-27T18:12:08.949Z,28.71
2022-07-27T18:14:58.388Z,29.04
2022-07-27T18:17:27.861Z,29.44
2022-07-27T18:19:59.843Z,29.81
2022-07-27T18:22:29.261Z,30.01
2022-07-27T18:24:58.868Z,30.38
2022-07-27T18:27:30.861Z,31.10
2022-07-27T18:30:00.337Z,30.87
2022-07-27T18:32:29.888Z,31.59
2022-07-27T18:35:01.936Z,31.69
2022-07-27T18:37:31.393Z,31.97
2022-07-27T18:40:00.745Z,31.94
2022-07-27T18:42:30.148Z,32.08
2022-07-27T18:44:59.609Z,32.53
2022-07-27T18:47:29.108Z,32.38
2022-07-27T18:49:58.491Z,32.78
2022-07-27T18:52:30.699Z,32.63
2022-07-27T18:55:00.556Z,33.40
2022-07-27T18:57:30.236Z,33.31
2022-07-27T18:59:59.596Z,33.22
2022-07-27T19:02:31.785Z,33.54
2022-07-27T19:05:03.193Z,33.56
2022-07-27T19:07:38.747Z,34.03
2022-07-27T19:10:10.731Z,33.75
2022-07-27T19:12:40.305Z,34.45
2022-07-27T19:15:12.857Z,33.96
2022-07-27T19:17:42.249Z,34.31
2022-07-27T19:20:13.298Z,34.34
2022-07-27T19:22:47.541Z,34.83
2022-07-27T19:25:17.680Z,34.35
2022-07-27T19:27:47.169Z,34.83
2022-07-27T19:30:16.808Z,34.50
2022-07-27T19:32:48.093Z,34.76
2022-07-27T19:35:17.648Z,35.11
2022-07-27T19:37:49.660Z,35.15
2022-07-27T19:43:08.880Z,35.03
2022-07-27T19:45:38.436Z,35.36
2022-07-27T19:48:08.430Z,35.05
2022-07-27T19:50:37.858Z,35.03
2022-07-27T19:53:10.108Z,35.42
2022-07-27T19:55:39.607Z,35.46
2022-07-27T19:58:08.937Z,35.73
2022-07-27T20:00:38.501Z,35.76
2022-07-27T20:03:07.907Z,35.39
2022-07-27T20:05:37.454Z,35.87
2022-07-27T20:08:07.200Z,35.52
2022-07-27T20:10:39.229Z,35.77
2022-07-27T20:13:08.656Z,35.66
2022-07-27T20:15:38.143Z,35.81
2022-07-27T20:18:07.783Z,35.76
2022-07-27T20:20:37.211Z,36.27
2022-07-27T20:23:07.629Z,35.98
2022-07-27T20:25:42.707Z,36.02
2022-07-27T20:28:13.213Z,35.93
2022-07-27T20:30:43.482Z,36.29
2022-07-27T20:33:15.600Z,36.57
2022-07-27T20:35:45.176Z,36.44
2022-07-27T20:38:14.565Z,36.41
2022-07-27T20:40:49.458Z,36.70
2022-07-27T20:43:18.887Z,36.52
2022-07-27T20:45:48.438Z,36.57
2022-07-27T20:48:17.844Z,36.78
2022-07-27T20:50:47.264Z,37.09
2022-07-27T20:53:16.639Z,37.04
2022-07-27T20:55:46.526Z,36.93
2022-07-27T20:58:18.519Z,37.30
2022-07-27T21:00:48.045Z,37.12
2022-07-27T21:03:17.581Z,36.90
2022-07-27T21:05:47.050Z,36.91
2022-07-27T21:08:16.485Z,36.86
2022-07-27T21:10:45.965Z,37.26
2022-07-27T21:13:18.037Z,37.52
2022-07-27T21:15:47.421Z,37.44
2022-07-27T21:18:16.847Z,37.45
2022-07-27T21:20:46.275Z,37.53
2022-07-27T21:23:28.558Z,38.32
2022-07-27T21:25:58.367Z,38.26
2022-07-27T21:28:30.767Z,38.40
2022-07-27T21:31:01.813Z,38.20
2022-07-27T21:33:39.430Z,38.41
2022-07-27T21:36:09.720Z,38.57
2022-07-27T21:38:39.913Z,38.87
2022-07-27T21:41:10.679Z,39.06
2022-07-27T21:43:44.637Z,39.17
2022-07-27T21:46:14.432Z,38.62
2022-07-27T21:48:44.828Z,38.96
2022-07-27T21:51:15.946Z,39.11
2022-07-27T21:53:45.712Z,39.27
2022-07-27T21:56:15.451Z,39.47
2022-07-27T21:58:48.962Z,39.65
2022-07-27T22:01:19.446Z,39.15
2022-07-27T22:03:49.371Z,39.43
2022-07-27T22:06:18.828Z,39.65
2022-07-27T22:08:48.967Z,40.21
2022-07-27T22:11:18.501Z,39.92
2022-07-27T22:13:50.826Z,40.32
2022-07-27T22:16:20.886Z,40.43
2022-07-27T22:18:50.366Z,40.25
2022-07-27T22:21:19.739Z,40.17
2022-07-27T22:23:51.061Z,40.64
2022-07-27T22:26:20.514Z,40.82
2022-07-27T22:28:52.487Z,40.85
2022-07-27T22:31:23.440Z,41.23
2022-07-27T22:33:52.946Z,40.84
2022-07-27T22:36:22.334Z,40.65
2022-07-27T22:38:51.675Z,41.40
2022-07-27T22:41:21.042Z,41.43
2022-07-27T22:43:53.431Z,41.41
2022-07-27T22:46:25.763Z,41.33
2022-07-27T22:48:55.414Z,41.79
2022-07-27T22:51:24.896Z,42.37
2022-07-27T22:53:54.515Z,42.68
2022-07-27T22:56:23.883Z,42.57
2022-07-27T22:58:55.869Z,42.60
2022-07-27T23:01:41.515Z,42.84
2022-07-27T23:04:15.169Z,43.08
2022-07-27T23:06:45.183Z,42.95
2022-07-27T23:09:14.577Z,43.15
2022-07-27T23:11:44.177Z,43.28
2022-07-27T23:14:16.336Z,43.76
2022-07-27T23:16:46.302Z,43.32
2022-07-27T23:19:15.703Z,43.20
2022-07-27T23:21:45.053Z,43.17
2022-07-27T23:24:16.364Z,42.96
2022-07-27T23:26:58.347Z,43.25
2022-07-27T23:29:30.289Z,43.23
2022-07-27T23:31:59.727Z,43.19
2022-07-27T23:34:29.229Z,43.62
2022-07-27T23:36:58.671Z,43.91
2022-07-27T23:39:28.880Z,43.69
2022-07-27T23:41:58.276Z,44.02
2022-07-27T23:44:30.254Z,44.08
2022-07-27T23:46:59.736Z,43.96
2022-07-27T23:49:29.180Z,44.90
2022-07-27T23:51:59.491Z,45.08
2022-07-27T23:54:29.030Z,45.35
2022-07-27T23:56:58.488Z,45.49
2022-07-27T23:59:30.402Z,44.74
